Time;durP1;ratioP1;P1;durP2;ratioP2;P2;SDS_P1;SDS_P2;PMS_P1;PMS_P2;Temp;Humidity;BMP_temperature;BMP_pressure;BME280_temperature;BME280_humidity;BME280_pressure;Samples;Min_cycle;Max_cycle;Signal;HPM_P1;HPM_P2
2023/01/07 00:01:22;;;;;;;17.90;13.80;;;10.10;88.10;;;12.93;61.81;101541.53;5046453;28;20209;-54
2023/01/07 00:03:51;;;;;;;18.23;13.70;;;10.10;88.10;;;12.96;62.07;101532.44;5057980;28;20216;-54
2023/01/07 00:06:21;;;;;;;20.10;14.53;;;10.10;88.20;;;12.92;62.27;101537.25;5058297;28;20245;-53
2023/01/07 00:08:50;;;;;;;18.37;14.43;;;10.20;88.50;;;12.93;62.55;101530.16;5059096;28;20593;-57
2023/01/07 00:11:19;;;;;;;17.00;14.20;;;10.20;88.50;;;12.92;62.64;101524.03;5066861;28;20190;-54
2023/01/07 00:13:49;;;;;;;17.03;14.93;;;10.20;88.60;;;12.95;62.70;101526.34;5055269;28;20197;-54
2023/01/07 00:16:20;;;;;;;19.07;15.27;;;10.30;88.80;;;12.97;62.89;101534.91;5057180;28;20224;-53
2023/01/07 00:18:47;;;;;;;19.93;15.03;;;10.30;88.90;;;13.00;62.88;101526.66;5056688;28;20217;-56
2023/01/07 00:21:17;;;;;;;15.57;13.47;;;10.30;89.00;;;13.06;62.97;101523.34;5057102;28;20233;-53
2023/01/07 00:23:46;;;;;;;14.93;13.30;;;10.30;88.90;;;13.11;62.98;101521.03;5056669;28;20665;-55
2023/01/07 00:26:17;;;;;;;18.10;16.07;;;10.40;89.20;;;13.11;63.34;101517.53;5060380;28;20235;-56
2023/01/07 00:28:47;;;;;;;19.37;15.77;;;10.40;89.80;;;13.09;63.69;101523.00;5060414;28;20197;-56
2023/01/07 00:31:19;;;;;;;20.33;15.33;;;10.40;90.00;;;13.10;63.88;101511.44;5037814;28;20210;-54
2023/01/07 00:34:08;;;;;;;20.47;16.97;;;10.50;90.10;;;13.08;64.21;101502.84;5040924;28;20197;-53
2023/01/07 00:36:40;;;;;;;18.50;16.47;;;10.50;90.20;;;13.07;64.73;101506.50;5042696;28;20285;-55
2023/01/07 00:39:13;;;;;;;22.40;17.33;;;10.60;90.50;;;13.09;65.07;101493.94;5036459;28;20222;-54
2023/01/07 00:42:52;;;;;;;18.53;16.60;;;10.50;90.50;;;13.12;65.14;101504.16;5037206;28;20702;-56
2023/01/07 00:44:28;;;;;;;19.83;17.23;;;10.60;90.50;;;13.13;65.60;101500.53;5038150;28;20213;-52
2023/01/07 00:46:57;;;;;;;19.17;15.67;;;10.60;90.80;;;13.21;65.65;101507.59;5038742;28;20198;-53
2023/01/07 00:49:24;;;;;;;18.53;16.53;;;10.70;90.90;;;13.29;65.52;101499.59;5036944;28;20667;-58
2023/01/07 00:51:51;;;;;;;19.90;17.60;;;10.70;90.90;;;13.37;65.59;101500.41;5038678;28;20194;-55
2023/01/07 00:54:18;;;;;;;19.70;16.80;;;10.70;91.10;;;13.45;65.87;101504.81;5042698;28;20190;-56
2023/01/07 00:56:45;;;;;;;20.13;17.00;;;10.80;91.30;;;13.49;65.80;101512.25;5045829;28;20614;-55
2023/01/07 00:59:12;;;;;;;20.63;18.50;;;10.80;91.30;;;13.54;66.01;101501.97;5051219;28;20214;-54
2023/01/07 01:01:39;;;;;;;21.80;19.40;;;10.90;91.50;;;13.55;66.17;101503.59;5064659;28;20210;-54
2023/01/07 01:04:08;;;;;;;23.60;19.97;;;10.90;91.50;;;13.58;66.42;101502.41;5061085;28;20193;-56
2023/01/07 01:06:35;;;;;;;22.80;20.20;;;11.00;91.60;;;13.58;66.33;101492.66;5057602;28;20627;-56
2023/01/07 01:09:02;;;;;;;23.73;20.77;;;11.10;91.70;;;13.63;66.48;101496.59;5056338;28;20233;-54
2023/01/07 01:11:28;;;;;;;24.30;21.17;;;11.10;91.60;;;13.68;66.48;101488.97;5056044;28;20591;-55
2023/01/07 01:13:55;;;;;;;22.53;19.10;;;11.10;91.60;;;13.72;66.05;101480.50;5056818;28;20234;-54
2023/01/07 01:16:22;;;;;;;24.37;19.90;;;11.20;91.60;;;13.76;66.12;101470.41;5057155;28;20190;-55
2023/01/07 01:18:49;;;;;;;22.87;20.47;;;11.20;91.50;;;13.75;66.33;101476.69;5044523;28;20300;-57
2023/01/07 01:21:18;;;;;;;22.63;20.23;;;11.20;91.60;;;13.78;66.20;101463.94;5035305;28;20207;-53
2023/01/07 01:23:45;;;;;;;21.97;19.10;;;11.20;91.50;;;13.85;66.02;101472.81;5036302;28;20651;-55
2023/01/07 01:26:15;;;;;;;22.47;20.17;;;11.30;91.50;;;13.88;65.76;101461.03;5035624;28;20198;-53
2023/01/07 01:28:43;;;;;;;22.90;20.23;;;11.30;91.60;;;13.93;66.06;101480.66;5035233;28;20182;-55
2023/01/07 01:31:11;;;;;;;23.83;21.27;;;11.30;91.60;;;13.93;66.22;101475.38;5035767;28;20186;-53
2023/01/07 01:33:38;;;;;;;24.70;22.17;;;11.30;91.60;;;13.94;66.28;101484.13;5035696;28;20195;-53
2023/01/07 01:36:09;;;;;;;24.77;21.50;;;11.40;91.70;;;13.95;66.13;101491.09;5036759;28;20276;-55
2023/01/07 01:38:38;;;;;;;24.23;21.63;;;11.30;91.60;;;13.95;66.27;101489.25;5035081;28;20209;-61
2023/01/07 01:41:05;;;;;;;23.27;20.77;;;11.40;91.80;;;13.96;66.44;101482.13;5035428;28;20567;-55
2023/01/07 01:43:35;;;;;;;24.17;21.60;;;11.40;91.70;;;13.90;66.82;101482.84;5035485;28;20229;-54
2023/01/07 01:46:09;;;;;;;23.40;20.90;;;11.40;91.90;;;13.91;67.06;101479.19;5035297;28;20197;-56
2023/01/07 01:48:44;;;;;;;24.73;22.07;;;11.40;91.90;;;13.93;66.90;101482.50;5043440;28;20207;-54
2023/01/07 01:51:16;;;;;;;25.73;22.70;;;11.50;92.00;;;13.94;67.18;101478.84;5050041;28;20197;-53
2023/01/07 01:53:44;;;;;;;23.27;20.73;;;11.40;92.10;;;13.99;67.19;101481.78;5044414;28;20197;-54
2023/01/07 01:56:16;;;;;;;21.60;19.30;;;11.50;92.10;;;14.06;66.88;101472.13;5055002;28;20194;-51
2023/01/07 01:58:50;;;;;;;23.40;21.07;;;11.50;92.30;;;14.11;66.97;101483.84;5054818;28;20569;-53
2023/01/07 02:01:17;;;;;;;23.33;20.83;;;11.50;92.10;;;14.15;66.89;101478.97;5055191;28;20685;-54
2023/01/07 02:03:46;;;;;;;23.30;20.87;;;11.60;92.10;;;14.19;66.76;101478.44;5054909;28;20202;-52
2023/01/07 02:06:29;;;;;;;21.90;19.67;;;11.60;92.10;;;14.20;66.65;101474.81;5054818;28;20193;-54
2023/01/07 02:08:58;;;;;;;23.07;20.67;;;11.70;92.10;;;14.25;66.83;101466.31;5038927;28;20695;-53
2023/01/07 02:11:41;;;;;;;22.33;19.37;;;11.70;92.10;;;14.26;66.82;101473.28;5034864;28;20193;-54
2023/01/07 02:14:34;;;;;;;23.33;20.93;;;11.70;92.10;;;14.26;66.89;101467.97;5034778;28;20198;-53
2023/01/07 02:17:16;;;;;;;23.17;20.83;;;11.70;92.10;;;14.35;66.65;101466.09;5034572;28;20190;-53
2023/01/07 02:20:36;;;;;;;22.80;20.47;;;11.80;92.10;;;14.37;66.49;101456.13;5034156;28;20214;-53
2023/01/07 02:23:44;;;;;;;22.30;20.00;;;11.80;92.00;;;14.38;66.67;101453.28;5033440;28;20260;-55
2023/01/07 02:26:45;;;;;;;22.73;20.30;;;11.90;91.90;;;14.41;66.58;101455.59;5034236;28;20194;-54
2023/01/07 02:29:47;;;;;;;22.33;20.07;;;11.90;91.90;;;14.43;66.38;101447.47;5033944;28;20217;-54
2023/01/07 02:32:35;;;;;;;22.60;20.00;;;11.90;91.90;;;14.46;66.37;101453.22;5034169;28;20178;-56
2023/01/07 02:35:19;;;;;;;22.43;20.03;;;12.00;91.90;;;14.46;66.36;101447.91;5034288;28;20198;-57
2023/01/07 02:38:00;;;;;;;21.53;19.43;;;12.00;91.90;;;14.50;66.27;101449.19;5034262;28;20200;-56
2023/01/07 02:40:36;;;;;;;23.90;21.40;;;12.00;91.90;;;14.52;66.07;101447.22;5034821;28;20574;-56
2023/01/07 02:43:15;;;;;;;21.97;19.57;;;11.90;91.90;;;14.54;66.28;101437.25;5033974;28;20228;-53
2023/01/07 02:45:52;;;;;;;21.23;19.13;;;11.90;91.90;;;14.58;66.03;101437.69;5033986;28;20917;-55
2023/01/07 02:48:23;;;;;;;20.23;18.13;;;12.00;92.20;;;14.56;66.28;101419.34;5040231;28;20190;-54
2023/01/07 02:50:50;;;;;;;23.00;20.60;;;12.00;91.90;;;14.56;66.38;101415.84;5040838;28;20226;-56
2023/01/07 02:53:19;;;;;;;23.73;21.33;;;12.00;91.90;;;14.50;66.53;101412.09;5034051;28;20191;-55
2023/01/07 02:56:13;;;;;;;21.63;19.50;;;12.00;92.00;;;14.38;66.96;101413.56;5033888;28;20770;-54
2023/01/07 02:59:07;;;;;;;22.43;20.13;;;12.00;92.10;;;14.39;66.82;101409.94;5033779;28;20204;-55
2023/01/07 03:02:15;;;;;;;19.60;17.57;;;12.00;92.10;;;14.44;66.92;101415.50;5033611;28;20199;-55
2023/01/07 03:05:20;;;;;;;19.43;17.53;;;12.00;92.00;;;14.55;66.98;101409.72;5047118;28;20244;-53
2023/01/07 03:08:04;;;;;;;20.10;18.07;;;12.00;92.10;;;14.62;66.45;101410.63;5040650;28;20197;-56
2023/01/07 03:10:41;;;;;;;21.27;19.27;;;12.10;92.10;;;14.64;66.60;101413.94;5053889;28;20221;-53
2023/01/07 03:13:16;;;;;;;20.27;18.07;;;12.10;92.20;;;14.68;66.43;101406.44;5053509;28;20190;-53
2023/01/07 03:15:50;;;;;;;19.60;17.60;;;12.10;92.10;;;14.74;66.36;101409.16;5053785;28;20196;-56
2023/01/07 03:18:23;;;;;;;21.57;19.57;;;12.10;92.10;;;14.78;66.34;101405.16;5042197;28;20202;-53
2023/01/07 03:20:57;;;;;;;19.07;17.23;;;12.10;92.10;;;14.77;66.27;101408.81;5033727;28;20305;-56
2023/01/07 03:23:28;;;;;;;21.00;19.10;;;12.20;92.10;;;14.75;66.29;101400.22;5033554;28;20212;-53
2023/01/07 03:26:02;;;;;;;20.37;18.33;;;12.20;92.10;;;14.77;66.57;101403.50;5033736;28;20179;-55
2023/01/07 03:28:35;;;;;;;19.67;17.73;;;12.20;92.10;;;14.74;66.67;101403.88;5033386;28;20253;-53
2023/01/07 03:31:06;;;;;;;19.67;17.67;;;12.20;92.10;;;14.80;66.65;101403.16;5033382;28;20221;-55
2023/01/07 03:33:42;;;;;;;17.70;16.00;;;12.20;92.10;;;14.84;66.44;101399.09;5038785;28;20697;-56
2023/01/07 03:36:15;;;;;;;19.13;17.17;;;12.20;92.10;;;14.86;66.38;101394.44;5053823;28;20177;-53
2023/01/07 03:38:44;;;;;;;18.20;16.33;;;12.30;92.20;;;14.89;66.35;101396.72;5053167;28;20232;-53
2023/01/07 03:42:38;;;;;;;18.57;16.77;;;12.30;92.10;;;14.93;66.41;101391.06;5053576;28;20190;-55
2023/01/07 03:43:58;;;;;;;19.33;17.53;;;12.30;92.10;;;14.91;66.56;101389.41;5053169;28;20201;-53
2023/01/07 03:46:26;;;;;;;19.00;17.20;;;12.30;92.10;;;14.88;66.99;101389.75;5053169;28;20212;-53
2023/01/07 03:48:53;;;;;;;17.87;16.07;;;12.30;92.20;;;14.88;66.72;101394.28;5052826;28;20218;-56
2023/01/07 03:51:21;;;;;;;19.40;17.53;;;12.40;92.20;;;14.92;66.44;101395.53;5052653;28;20185;-55
2023/01/07 03:53:48;;;;;;;18.17;16.37;;;12.40;92.20;;;14.94;66.76;101393.50;5040116;28;20208;-53
2023/01/07 03:56:15;;;;;;;19.13;17.27;;;12.40;92.20;;;15.00;66.55;101394.59;5034568;28;20206;-55
2023/01/07 03:58:42;;;;;;;17.53;15.83;;;12.40;92.20;;;15.05;66.41;101390.38;5050519;28;20194;-55
2023/01/07 04:01:09;;;;;;;17.40;15.80;;;12.40;92.20;;;15.05;66.30;101392.22;5053198;28;20647;-53
2023/01/07 04:03:36;;;;;;;18.97;17.27;;;12.40;92.20;;;15.05;66.58;101386.91;5053245;28;20214;-54
2023/01/07 04:06:03;;;;;;;17.47;15.77;;;12.50;92.30;;;15.04;66.39;101385.25;5053328;28;20194;-56
2023/01/07 04:08:31;;;;;;;18.23;16.33;;;12.50;92.30;;;15.06;66.74;101380.59;5052016;28;20659;-54
2023/01/07 04:10:58;;;;;;;18.60;16.87;;;12.50;92.30;;;15.11;66.83;101384.31;5052912;28;20651;-51
2023/01/07 04:13:25;;;;;;;17.40;15.70;;;12.50;92.20;;;15.16;66.50;101375.81;5052093;28;20194;-54
2023/01/07 04:15:52;;;;;;;16.93;15.27;;;12.50;92.20;;;15.22;66.30;101380.34;5052817;28;20308;-54
2023/01/07 04:18:21;;;;;;;16.77;15.27;;;12.60;92.30;;;15.25;66.43;101380.78;5052522;28;20186;-54
2023/01/07 04:20:48;;;;;;;16.57;15.07;;;12.60;92.20;;;15.31;66.34;101373.91;5053173;28;20301;-55
2023/01/07 04:23:15;;;;;;;17.73;16.07;;;12.60;92.20;;;15.27;66.20;101372.63;5052998;28;20206;-54
2023/01/07 04:25:45;;;;;;;16.87;15.33;;;12.60;92.20;;;15.29;66.04;101370.63;5052856;28;20782;-54
2023/01/07 04:28:12;;;;;;;17.87;16.27;;;12.60;92.20;;;15.29;65.96;101370.63;5050822;28;20204;-55
2023/01/07 04:30:39;;;;;;;18.20;16.40;;;12.60;92.20;;;15.27;66.26;101356.72;5052483;28;20233;-54
2023/01/07 04:33:06;;;;;;;16.73;15.13;;;12.70;92.20;;;15.26;65.90;101360.41;5052695;28;20194;-55
2023/01/07 04:35:33;;;;;;;17.17;15.67;;;12.70;92.10;;;15.25;66.58;101353.44;5052685;28;20194;-55
2023/01/07 04:38:00;;;;;;;15.53;13.97;;;12.70;92.20;;;15.29;66.11;101355.53;5052415;28;20213;-56
2023/01/07 04:40:27;;;;;;;17.93;16.30;;;12.70;92.10;;;15.28;66.60;101355.72;5047019;28;20536;-56
2023/01/07 04:42:55;;;;;;;17.37;15.77;;;12.70;92.30;;;15.24;66.96;101354.44;5045467;28;20701;-56
2023/01/07 04:45:22;;;;;;;16.30;14.90;;;12.70;92.20;;;15.29;66.33;101354.69;5052911;28;20190;-57
2023/01/07 04:47:53;;;;;;;16.80;15.30;;;12.70;92.20;;;15.26;66.48;101355.91;5056278;28;20218;-56
2023/01/07 04:50:20;;;;;;;17.40;15.80;;;12.70;92.30;;;15.21;66.81;101346.88;5056151;28;20210;-54
2023/01/07 04:52:47;;;;;;;16.97;15.37;;;12.70;92.30;;;15.21;66.86;101347.72;5056149;28;20193;-54
2023/01/07 04:55:15;;;;;;;17.90;16.20;;;12.70;92.30;;;15.22;67.14;101348.50;5055691;28;20307;-53
2023/01/07 04:57:42;;;;;;;18.43;16.83;;;12.70;92.30;;;15.24;66.67;101347.31;5056144;28;20197;-55
2023/01/07 05:00:12;;;;;;;17.57;15.80;;;12.70;92.30;;;15.28;66.88;101347.78;5055424;28;20574;-53
2023/01/07 05:02:39;;;;;;;18.70;17.00;;;12.70;92.30;;;15.32;66.67;101349.03;5055729;28;20209;-57
2023/01/07 05:05:07;;;;;;;16.90;15.43;;;12.70;92.30;;;15.33;66.33;101350.69;5055768;28;20658;-53
2023/01/07 05:07:34;;;;;;;15.60;14.20;;;12.70;92.30;;;15.36;66.38;101345.78;5055799;28;20201;-55
2023/01/07 05:10:01;;;;;;;16.93;15.40;;;12.80;92.30;;;15.40;66.29;101346.25;5036335;28;20299;-55
2023/01/07 05:12:28;;;;;;;17.03;15.53;;;12.80;92.30;;;15.44;66.24;101347.50;5036012;28;20193;-54
2023/01/07 05:14:55;;;;;;;16.80;15.27;;;12.80;92.30;;;15.46;66.15;101329.59;5035774;28;20554;-55
2023/01/07 05:17:23;;;;;;;17.43;15.83;;;12.80;92.30;;;15.43;66.00;101333.41;5035592;28;20202;-56
2023/01/07 05:19:50;;;;;;;17.17;15.63;;;12.80;92.20;;;15.38;66.31;101333.16;5035410;28;20217;-56
2023/01/07 05:22:17;;;;;;;18.20;16.53;;;12.80;92.10;;;15.34;66.35;101336.38;5041085;28;20511;-56
2023/01/07 05:24:44;;;;;;;15.07;13.67;;;12.80;92.10;;;15.40;66.01;101327.69;5054232;28;20284;-55
2023/01/07 05:27:11;;;;;;;17.03;15.63;;;12.80;92.10;;;15.41;65.94;101331.97;5055363;28;20593;-56
2023/01/07 05:29:38;;;;;;;17.30;15.80;;;12.80;92.10;;;15.39;66.36;101333.97;5055502;28;20573;-55
2023/01/07 05:32:05;;;;;;;16.77;15.23;;;12.80;92.00;;;15.35;66.32;101327.44;5055447;28;20198;-54
2023/01/07 05:34:33;;;;;;;15.90;14.60;;;12.80;92.00;;;15.35;66.37;101330.91;5055237;28;20194;-53
2023/01/07 05:37:00;;;;;;;15.53;14.13;;;12.80;92.00;;;15.36;66.18;101329.06;5043843;28;20199;-53
2023/01/07 05:39:27;;;;;;;17.73;15.90;;;12.80;91.90;;;15.38;65.93;101332.38;5050276;28;20233;-53
2023/01/07 05:41:54;;;;;;;17.20;15.60;;;12.80;91.90;;;15.40;65.97;101331.13;5059884;28;20186;-55
2023/01/07 05:44:21;;;;;;;16.57;15.17;;;12.80;91.90;;;15.42;66.04;101336.25;5055634;28;20186;-56
2023/01/07 05:46:48;;;;;;;15.07;13.77;;;12.80;91.80;;;15.46;65.38;101332.25;5055622;28;20190;-53
2023/01/07 05:49:15;;;;;;;17.10;15.47;;;12.80;91.80;;;15.48;65.77;101338.16;5054497;28;20213;-53
2023/01/07 05:51:44;;;;;;;17.57;15.97;;;12.90;91.80;;;15.47;65.55;101333.88;5054688;28;20225;-55
2023/01/07 05:54:11;;;;;;;16.43;15.03;;;12.90;91.70;;;15.44;65.51;101336.88;5055029;28;20193;-54
2023/01/07 05:56:38;;;;;;;17.43;15.83;;;12.90;91.60;;;15.49;65.19;101337.16;5054766;28;20194;-56
2023/01/07 05:59:05;;;;;;;16.50;15.00;;;12.90;91.60;;;15.48;65.48;101338.16;5054628;28;20209;-53
2023/01/07 06:01:34;;;;;;;17.43;15.60;;;12.90;91.50;;;15.52;65.10;101334.13;5054539;28;20186;-56
2023/01/07 06:04:01;;;;;;;14.73;13.43;;;12.90;91.50;;;15.57;65.00;101331.72;5053866;28;20623;-56
2023/01/07 06:06:28;;;;;;;16.53;15.13;;;12.90;91.50;;;15.61;64.52;101337.47;5054757;28;20194;-54
2023/01/07 06:08:56;;;;;;;16.43;14.97;;;12.90;91.40;;;15.60;64.62;101333.97;5054301;28;20674;-52
2023/01/07 06:11:23;;;;;;;16.13;14.63;;;13.00;91.30;;;15.59;64.86;101329.72;5055147;28;20244;-56
2023/01/07 06:13:50;;;;;;;15.57;14.17;;;13.00;91.30;;;15.64;64.35;101337.91;5054995;28;20553;-53
2023/01/07 06:16:17;;;;;;;15.07;13.67;;;13.00;91.20;;;15.64;64.47;101340.56;5054910;28;20663;-54
2023/01/07 06:18:44;;;;;;;17.27;15.73;;;13.00;91.20;;;15.66;64.32;101335.06;5053588;28;20197;-55
2023/01/07 06:21:11;;;;;;;14.17;12.90;;;13.00;91.10;;;15.64;64.36;101337.91;5054668;28;20671;-55
2023/01/07 06:23:38;;;;;;;15.47;14.00;;;13.10;91.40;;;15.60;64.34;101336.63;5054280;28;20218;-56
2023/01/07 06:26:06;;;;;;;14.33;13.00;;;13.10;91.00;;;15.64;64.37;101329.94;5054144;28;20232;-55
2023/01/07 06:28:33;;;;;;;15.70;14.23;;;13.00;91.00;;;15.67;64.08;101331.38;5053982;28;20197;-54
2023/01/07 06:31:00;;;;;;;15.50;14.03;;;13.00;90.90;;;15.66;64.20;101330.56;5054433;28;20271;-52
2023/01/07 06:33:27;;;;;;;15.23;13.77;;;13.00;90.90;;;15.67;64.03;101334.03;5036682;28;20275;-55
2023/01/07 06:35:54;;;;;;;15.90;14.40;;;13.10;90.90;;;15.68;63.73;101323.25;5051372;28;20208;-55
2023/01/07 06:38:21;;;;;;;13.63;12.37;;;13.10;90.80;;;15.71;63.91;101330.00;5055327;28;20233;-58
2023/01/07 06:40:48;;;;;;;13.77;12.57;;;13.10;91.10;;;15.74;63.54;101327.75;5054424;28;20621;-53
2023/01/07 06:43:16;;;;;;;15.43;13.73;;;13.10;90.80;;;15.77;63.54;101330.03;5054109;28;20213;-55
2023/01/07 06:45:43;;;;;;;14.13;12.87;;;13.10;90.80;;;15.74;63.43;101327.75;5050095;28;20226;-53
2023/01/07 06:48:10;;;;;;;13.77;12.47;;;13.10;90.60;;;15.75;63.29;101320.63;5038755;28;20194;-56
2023/01/07 06:50:37;;;;;;;15.30;13.87;;;13.10;90.70;;;15.73;63.59;101326.13;5053669;28;20308;-56
2023/01/07 06:53:05;;;;;;;15.73;14.27;;;13.10;90.60;;;15.71;63.53;101328.16;5053820;28;20201;-56
2023/01/07 06:55:32;;;;;;;15.50;14.10;;;13.10;90.60;;;15.69;63.53;101324.84;5053477;28;20674;-56
2023/01/07 06:57:59;;;;;;;13.83;12.63;;;13.10;90.50;;;15.68;63.34;101325.88;5054032;28;20194;-56
2023/01/07 07:00:28;;;;;;;15.17;13.67;;;13.10;90.50;;;15.68;63.47;101333.84;5052551;28;20218;-57
2023/01/07 07:02:55;;;;;;;13.63;12.43;;;13.10;90.50;;;15.67;63.51;101326.06;5053172;28;20233;-54
2023/01/07 07:05:22;;;;;;;14.93;13.33;;;13.10;90.60;;;15.67;63.02;101326.06;5053525;28;20193;-56
2023/01/07 07:07:48;;;;;;;13.63;11.67;;;13.10;90.50;;;15.64;63.47;101326.47;5053061;28;20590;-55
2023/01/07 07:10:16;;;;;;;13.67;12.27;;;13.00;90.40;;;15.62;63.44;101318.69;5051344;28;20263;-56
2023/01/07 07:12:43;;;;;;;14.50;13.03;;;13.00;90.40;;;15.64;63.38;101319.34;5053432;28;20194;-54
2023/01/07 07:15:11;;;;;;;14.07;12.40;;;13.00;90.40;;;15.65;62.93;101318.31;5036983;28;20268;-55
2023/01/07 07:17:39;;;;;;;14.47;13.10;;;13.10;90.40;;;15.63;63.48;101315.03;5034032;28;20263;-56
2023/01/07 07:20:08;;;;;;;16.03;14.33;;;13.00;90.30;;;15.61;63.20;101316.22;5033412;28;20682;-54
2023/01/07 07:22:35;;;;;;;15.00;12.60;;;13.00;90.30;;;15.59;63.06;101311.94;5032539;28;20269;-54
2023/01/07 07:25:02;;;;;;;13.07;11.77;;;13.00;90.30;;;15.57;63.27;101319.25;5033639;28;20195;-55
2023/01/07 07:27:29;;;;;;;14.20;12.90;;;13.00;90.30;;;15.53;63.24;101319.84;5035859;28;20190;-55
2023/01/07 07:29:56;;;;;;;14.40;13.10;;;13.00;90.20;;;15.52;63.11;101313.72;5053049;28;20216;-55
2023/01/07 07:32:27;;;;;;;13.30;12.10;;;13.00;90.30;;;15.52;63.40;101312.91;5053152;28;20201;-56
2023/01/07 07:34:55;;;;;;;13.53;12.23;;;13.00;90.30;;;15.52;63.29;101312.91;5033329;28;20185;-55
2023/01/07 07:37:24;;;;;;;14.77;13.27;;;13.00;90.30;;;15.53;63.07;101312.72;5033086;28;20198;-54
2023/01/07 07:39:51;;;;;;;14.33;13.03;;;12.90;90.20;;;15.52;63.20;101307.59;5035376;28;20232;-56
2023/01/07 07:42:18;;;;;;;13.57;12.37;;;12.90;90.20;;;15.49;63.32;101310.63;5047098;28;20193;-55
2023/01/07 07:44:45;;;;;;;11.90;10.67;;;12.90;90.20;;;15.49;63.37;101308.81;5060275;28;20694;-56
2023/01/07 07:47:12;;;;;;;13.63;12.23;;;12.90;90.20;;;15.52;63.13;101313.72;5058231;28;20198;-55
2023/01/07 07:49:39;;;;;;;13.90;12.53;;;12.90;90.30;;;15.48;63.25;101314.28;5059417;28;20725;-56
2023/01/07 07:52:07;;;;;;;14.20;12.77;;;12.90;90.20;;;15.44;63.10;101299.75;5057049;28;20197;-57
2023/01/07 07:54:34;;;;;;;14.20;12.73;;;12.90;90.20;;;15.41;63.25;101300.13;5058960;28;20190;-54
2023/01/07 07:57:02;;;;;;;12.87;11.67;;;12.90;90.20;;;15.35;63.47;101295.59;5042002;28;20273;-55
2023/01/07 07:59:29;;;;;;;13.50;11.70;;;12.80;90.10;;;15.29;63.56;101301.66;5043287;28;20213;-56
2023/01/07 08:01:56;;;;;;;13.20;12.00;;;12.80;90.10;;;15.24;63.55;101298.75;5053678;28;20651;-54
2023/01/07 08:04:24;;;;;;;14.30;12.23;;;12.80;90.10;;;15.20;63.69;101297.50;5053175;28;20224;-54
2023/01/07 08:06:50;;;;;;;12.30;11.17;;;12.80;90.10;;;15.16;63.58;101297.06;5051979;28;20198;-55
2023/01/07 08:09:19;;;;;;;12.47;11.23;;;12.70;90.10;;;15.16;63.81;101301.56;5051724;28;20218;-53
2023/01/07 08:11:46;;;;;;;11.47;10.37;;;12.70;90.20;;;15.15;63.70;101294.59;5052336;28;20190;-56
2023/01/07 08:14:13;;;;;;;11.93;10.83;;;12.70;90.20;;;15.15;63.69;101292.78;5052414;28;20197;-53
2023/01/07 08:16:40;;;;;;;10.20;9.30;;;12.70;90.20;;;15.16;63.59;101290.94;5052924;28;20544;-54
2023/01/07 08:19:07;;;;;;;11.93;10.27;;;12.70;90.20;;;15.17;63.64;101292.56;5052276;28;20216;-54
2023/01/07 08:21:34;;;;;;;10.37;9.47;;;12.60;90.20;;;15.20;63.54;101300.16;5054102;28;20189;-55
2023/01/07 08:24:01;;;;;;;10.40;9.40;;;12.70;90.20;;;15.22;63.43;101298.13;5047216;28;20221;-54
2023/01/07 08:26:30;;;;;;;11.23;10.03;;;12.70;90.20;;;15.23;63.32;101297.13;5037391;28;20206;-56
2023/01/07 08:28:57;;;;;;;11.33;10.20;;;12.70;90.20;;;15.25;63.02;101295.09;5055937;28;20205;-56
2023/01/07 08:31:24;;;;;;;10.80;9.70;;;12.70;90.20;;;15.26;63.11;101294.91;5056376;28;20267;-55
2023/01/07 08:33:51;;;;;;;9.43;8.53;;;12.70;90.10;;;15.30;62.92;101292.69;5056442;28;20185;-56
2023/01/07 08:36:17;;;;;;;8.80;7.90;;;12.70;90.10;;;15.35;62.94;101295.59;5055149;28;20540;-54
2023/01/07 08:38:51;;;;;;;9.40;8.50;;;12.70;90.10;;;15.38;62.72;101293.38;5039277;28;20226;-56
2023/01/07 08:41:18;;;;;;;10.20;7.97;;;12.80;90.10;;;15.47;62.59;101296.75;5036356;28;20219;-54
2023/01/07 08:43:47;;;;;;;9.37;8.47;;;12.80;90.10;;;15.54;62.27;101300.28;5036037;28;20214;-55
2023/01/07 08:46:15;;;;;;;7.23;6.53;;;12.80;89.80;;;15.56;62.31;101298.25;5036598;28;20195;-61
2023/01/07 08:48:42;;;;;;;7.80;7.10;;;12.80;89.60;;;15.61;61.96;101300.31;5045668;28;20198;-55
2023/01/07 08:51:10;;;;;;;7.33;6.33;;;12.90;89.40;;;15.50;61.67;101299.00;5056044;28;20216;-54
2023/01/07 08:53:38;;;;;;;7.13;6.43;;;12.90;89.00;;;15.47;61.96;101288.78;5056076;28;20186;-55
2023/01/07 08:56:06;;;;;;;7.27;6.57;;;12.90;88.90;;;15.47;61.87;101294.09;5055611;28;20209;-54
2023/01/07 08:58:33;;;;;;;6.47;5.87;;;12.90;88.80;;;15.46;61.86;101287.13;5055103;28;20204;-57
2023/01/07 09:01:04;;;;;;;6.63;5.83;;;12.90;88.60;;;15.32;61.41;101285.38;5055529;28;20202;-55
2023/01/07 09:03:33;;;;;;;5.80;5.23;;;12.80;88.30;;;15.33;62.08;101290.47;5054400;28;20197;-55
2023/01/07 09:06:00;;;;;;;7.60;5.60;;;12.80;88.30;;;15.29;61.83;101281.25;5054834;28;20220;-53
2023/01/07 09:08:30;;;;;;;4.97;4.53;;;12.80;88.30;;;15.26;61.95;101280.84;5054393;28;20190;-55
2023/01/07 09:10:57;;;;;;;5.77;5.03;;;12.80;88.30;;;15.26;61.93;101283.50;5055449;28;20213;-55
2023/01/07 09:13:24;;;;;;;4.70;4.30;;;12.80;88.30;;;15.27;61.92;101277.16;5054477;28;20198;-56
2023/01/07 09:15:52;;;;;;;3.90;3.60;;;12.80;88.30;;;15.22;61.67;101284.88;5055312;28;20554;-58
2023/01/07 09:18:20;;;;;;;4.40;4.00;;;12.80;88.10;;;15.22;61.84;101279.56;5055185;28;20186;-54
2023/01/07 09:20:47;;;;;;;5.10;3.73;;;12.80;88.00;;;15.23;61.94;101270.59;5037992;28;20218;-55
2023/01/07 09:23:14;;;;;;;3.00;2.80;;;12.80;88.00;;;15.25;61.76;101271.22;5040237;28;20228;-56
2023/01/07 09:25:41;;;;;;;3.23;3.03;;;12.80;87.70;;;15.28;61.41;101269.03;5055474;28;20182;-58
2023/01/07 09:28:08;;;;;;;3.10;2.80;;;12.80;87.60;;;15.31;61.16;101278.41;5054731;28;20194;-54
2023/01/07 09:30:36;;;;;;;4.23;2.97;;;12.80;87.40;;;15.35;60.83;101275.22;5055236;28;20217;-54
2023/01/07 09:33:03;;;;;;;2.80;2.60;;;12.80;87.20;;;15.38;60.90;101268.69;5051172;28;20222;-55
2023/01/07 09:35:32;;;;;;;2.77;2.23;;;12.80;87.00;;;15.44;60.70;101273.22;5035470;28;20652;-55
2023/01/07 09:37:59;;;;;;;2.83;2.50;;;12.90;87.00;;;15.49;60.50;101265.53;5034598;28;20208;-55
2023/01/07 09:40:31;;;;;;;3.10;2.20;;;12.90;86.90;;;15.52;60.42;101265.16;5035034;28;20678;-52
2023/01/07 09:43:06;;;;;;;3.03;2.20;;;12.90;86.70;;;15.59;60.51;101272.13;5035095;28;20194;-55
2023/01/07 09:45:41;;;;;;;1.80;1.70;;;12.90;86.60;;;15.67;59.79;101263.19;5034892;28;20218;-53
2023/01/07 09:48:20;;;;;;;4.07;2.10;;;13.00;86.60;;;15.74;59.41;101258.75;5039485;28;20196;-56
2023/01/07 09:50:57;;;;;;;2.93;2.27;;;13.00;86.20;;;15.73;58.97;101251.81;5049602;28;20297;-55
2023/01/07 09:53:33;;;;;;;3.70;3.30;;;13.00;85.50;;;15.65;59.33;101259.91;5034869;28;20187;-56
2023/01/07 09:56:07;;;;;;;2.90;1.73;;;13.10;85.40;;;15.63;59.19;101251.34;5034659;28;20195;-56
2023/01/07 09:58:43;;;;;;;2.10;1.90;;;13.10;85.10;;;15.62;59.61;101254.19;5034933;28;20209;-60
2023/01/07 10:01:25;;;;;;;2.03;1.83;;;13.10;84.90;;;15.55;59.06;101248.81;5054699;28;20190;-53
2023/01/07 10:04:15;;;;;;;1.90;1.80;;;13.10;84.80;;;15.56;59.10;101250.47;5055479;28;20694;-53
2023/01/07 10:06:58;;;;;;;2.80;1.70;;;13.10;84.60;;;15.50;58.80;101252.06;5053319;28;20280;-56
2023/01/07 10:09:41;;;;;;;1.90;1.80;;;13.10;84.50;;;15.46;59.24;101247.34;5054541;28;20631;-54
2023/01/07 10:12:21;;;;;;;2.00;1.80;;;13.10;84.40;;;15.49;59.20;101246.97;5055031;28;20729;-53
2023/01/07 10:15:09;;;;;;;2.60;2.13;;;13.10;84.50;;;15.40;59.33;101246.25;5054446;28;20190;-54
2023/01/07 10:17:58;;;;;;;2.30;2.10;;;13.00;84.40;;;15.48;59.07;101242.66;5053366;28;20674;-54